Time;durP1;ratioP1;P1;durP2;ratioP2;P2;SDS_P1;SDS_P2;PMS_P1;PMS_P2;Temp;Humidity;BMP_temperature;BMP_pressure;BME280_temperature;BME280_humidity;BME280_pressure;Samples;Min_cycle;Max_cycle;Signal;HPM_P1;HPM_P2
2021/09/24 00:02:14;;;;;;;6.65;2.88;;;19.20;66.70;;;;;;5015348;28;20113;-73
2021/09/24 00:04:40;;;;;;;7.05;2.42;;;19.20;67.30;;;;;;5015491;28;20030;-72
2021/09/24 00:07:07;;;;;;;8.52;2.50;;;19.20;67.90;;;;;;5015551;28;20125;-72
2021/09/24 00:09:32;;;;;;;5.38;2.58;;;19.20;68.20;;;;;;5014669;28;20451;-72
2021/09/24 00:11:58;;;;;;;3.63;2.50;;;19.20;68.00;;;;;;5015467;28;20065;-73
2021/09/24 00:14:24;;;;;;;4.10;2.88;;;19.20;67.90;;;;;;5015009;28;20088;-72
2021/09/24 00:16:50;;;;;;;6.60;3.03;;;19.20;67.50;;;;;;5015292;28;20022;-74
2021/09/24 00:19:15;;;;;;;8.68;3.50;;;19.20;67.30;;;;;;5015035;28;20038;-72
2021/09/24 00:21:41;;;;;;;6.28;2.95;;;19.20;67.40;;;;;;5015222;28;20495;-76
2021/09/24 00:24:07;;;;;;;5.68;3.08;;;19.10;67.40;;;;;;5015421;28;20033;-74
2021/09/24 00:26:32;;;;;;;3.75;2.63;;;19.20;67.20;;;;;;5015003;28;20045;-78
2021/09/24 00:28:58;;;;;;;4.18;2.72;;;19.10;67.60;;;;;;5014688;28;20054;-72
2021/09/24 00:31:25;;;;;;;12.30;4.00;;;19.20;67.70;;;;;;5014308;28;20117;-75
2021/09/24 00:33:51;;;;;;;5.00;2.92;;;19.10;67.80;;;;;;5014942;28;20029;-77
2021/09/24 00:36:17;;;;;;;5.85;2.60;;;19.20;68.00;;;;;;5015029;28;20045;-72
2021/09/24 00:38:43;;;;;;;5.93;2.67;;;19.20;68.10;;;;;;5014590;28;20026;-72
2021/09/24 00:41:09;;;;;;;5.13;2.80;;;19.20;67.80;;;;;;5014842;28;20108;-72
2021/09/24 00:43:35;;;;;;;6.60;2.45;;;19.20;67.80;;;;;;5014745;28;20064;-72
2021/09/24 00:46:02;;;;;;;5.10;2.47;;;19.10;67.90;;;;;;5014700;28;20114;-72
2021/09/24 00:48:28;;;;;;;6.90;2.63;;;19.20;68.20;;;;;;5014524;28;20049;-72
2021/09/24 00:50:54;;;;;;;2.75;2.05;;;19.10;68.00;;;;;;5014370;28;20030;-72
2021/09/24 00:53:20;;;;;;;6.13;2.47;;;19.20;68.30;;;;;;5014456;28;20105;-77
2021/09/24 00:55:46;;;;;;;6.38;2.53;;;19.10;68.40;;;;;;5014239;28;20087;-72
2021/09/24 00:58:12;;;;;;;9.55;2.70;;;19.10;68.40;;;;;;5014113;28;20491;-72
2021/09/24 01:00:38;;;;;;;7.85;2.70;;;19.10;68.60;;;;;;5014138;28;20030;-78
2021/09/24 01:03:04;;;;;;;6.00;2.30;;;19.10;68.80;;;;;;5014702;28;20233;-73
2021/09/24 01:05:30;;;;;;;3.80;2.45;;;19.10;68.90;;;;;;5014034;28;20034;-77
2021/09/24 01:07:56;;;;;;;4.03;2.42;;;19.10;69.10;;;;;;5013952;28;20447;-77
2021/09/24 01:10:22;;;;;;;3.58;2.30;;;19.10;69.60;;;;;;5013969;28;20487;-72
2021/09/24 01:12:48;;;;;;;5.60;2.63;;;19.10;70.00;;;;;;5013635;28;20045;-72
2021/09/24 01:15:17;;;;;;;5.32;2.38;;;19.10;70.00;;;;;;5014004;28;20077;-72
2021/09/24 01:17:45;;;;;;;5.40;2.80;;;19.10;70.00;;;;;;5013986;28;20045;-77
2021/09/24 01:20:13;;;;;;;8.52;2.53;;;19.10;70.00;;;;;;5013735;28;20113;-72
2021/09/24 01:22:38;;;;;;;3.28;2.60;;;19.10;69.60;;;;;;5013909;28;20038;-72
2021/09/24 01:25:09;;;;;;;7.15;2.90;;;19.10;69.20;;;;;;5014088;28;20117;-77
2021/09/24 01:27:35;;;;;;;3.53;2.60;;;19.10;69.30;;;;;;5013806;28;20046;-77
2021/09/24 01:30:03;;;;;;;6.32;2.80;;;19.10;69.30;;;;;;5013641;28;20062;-77
2021/09/24 01:32:28;;;;;;;3.22;2.58;;;19.10;69.60;;;;;;5013629;28;20042;-72
2021/09/24 01:34:54;;;;;;;4.88;2.70;;;19.10;69.70;;;;;;5013656;28;20076;-73
2021/09/24 01:37:20;;;;;;;4.35;2.40;;;19.10;69.60;;;;;;5013493;28;20368;-72
2021/09/24 01:39:46;;;;;;;5.20;2.88;;;19.10;69.80;;;;;;5013622;28;20072;-72
2021/09/24 01:42:12;;;;;;;7.35;2.72;;;19.10;69.90;;;;;;5013178;28;20042;-75
2021/09/24 01:44:38;;;;;;;6.07;2.67;;;19.10;69.60;;;;;;5013273;28;20080;-72
2021/09/24 01:47:04;;;;;;;6.32;2.72;;;19.10;69.80;;;;;;5013779;28;20482;-76
2021/09/24 01:49:30;;;;;;;10.20;3.47;;;19.10;69.90;;;;;;5013735;28;20375;-72
2021/09/24 01:51:56;;;;;;;4.75;2.60;;;19.10;70.00;;;;;;5012938;28;20112;-72
2021/09/24 01:54:23;;;;;;;8.13;2.80;;;19.10;70.30;;;;;;5013638;28;20109;-72
2021/09/24 01:56:49;;;;;;;4.90;3.05;;;19.00;70.40;;;;;;5013547;28;20034;-72
2021/09/24 01:59:14;;;;;;;5.85;3.50;;;19.00;70.50;;;;;;5013452;28;20042;-73
2021/09/24 02:01:40;;;;;;;4.72;3.15;;;19.00;70.40;;;;;;5013252;28;20034;-72
2021/09/24 02:04:06;;;;;;;4.63;3.10;;;19.00;70.20;;;;;;5013529;28;20093;-72
2021/09/24 02:06:32;;;;;;;4.22;2.65;;;19.00;70.20;;;;;;5013382;28;20061;-77
2021/09/24 02:08:58;;;;;;;7.18;2.70;;;19.00;70.40;;;;;;5014152;28;20038;-77
2021/09/24 02:11:24;;;;;;;7.35;2.63;;;19.00;70.30;;;;;;4995428;28;20065;-72
2021/09/24 02:13:50;;;;;;;5.05;2.70;;;18.90;70.60;;;;;;5013412;28;20038;-72
2021/09/24 02:16:16;;;;;;;7.40;3.55;;;18.90;71.00;;;;;;5013470;28;20026;-72
2021/09/24 02:18:42;;;;;;;6.63;2.72;;;18.90;70.70;;;;;;5013050;28;20113;-77
2021/09/24 02:21:09;;;;;;;5.00;2.67;;;18.90;70.50;;;;;;5013407;28;20037;-72
2021/09/24 02:23:35;;;;;;;5.05;3.00;;;18.90;70.70;;;;;;5013245;28;20030;-75
2021/09/24 02:26:02;;;;;;;5.55;3.30;;;18.90;70.80;;;;;;5013118;28;20038;-72
2021/09/24 02:28:27;;;;;;;6.97;2.67;;;18.90;70.70;;;;;;5013274;28;20172;-72
2021/09/24 02:30:53;;;;;;;4.70;2.70;;;18.90;70.60;;;;;;5012942;28;20108;-72
2021/09/24 02:33:19;;;;;;;5.78;3.17;;;18.90;70.60;;;;;;5013206;28;20042;-72
2021/09/24 02:35:45;;;;;;;5.65;3.10;;;18.80;70.60;;;;;;5013366;28;20036;-72
2021/09/24 02:38:11;;;;;;;9.63;2.80;;;18.90;70.70;;;;;;5013040;28;20038;-72
2021/09/24 02:40:37;;;;;;;6.20;2.90;;;18.90;70.60;;;;;;5013347;28;20486;-73
2021/09/24 02:43:03;;;;;;;8.52;3.22;;;18.80;70.50;;;;;;5013248;28;20033;-72
2021/09/24 02:45:28;;;;;;;6.35;2.80;;;18.80;70.40;;;;;;5012897;28;20072;-76
2021/09/24 02:47:54;;;;;;;5.30;2.83;;;18.80;70.80;;;;;;5013041;28;20038;-75
2021/09/24 02:50:20;;;;;;;8.98;2.58;;;18.80;70.80;;;;;;5013203;28;20041;-76
2021/09/24 02:52:46;;;;;;;7.55;2.85;;;18.80;71.10;;;;;;5012851;28;20049;-72
2021/09/24 02:55:11;;;;;;;6.25;2.85;;;18.80;71.40;;;;;;5015506;28;20030;-73
2021/09/24 02:57:37;;;;;;;9.85;3.00;;;18.80;71.30;;;;;;5016398;28;20045;-72
2021/09/24 03:00:05;;;;;;;7.40;2.92;;;18.80;71.30;;;;;;5016426;28;20022;-72
2021/09/24 03:02:31;;;;;;;3.72;3.00;;;18.80;71.00;;;;;;5018327;28;20494;-72
2021/09/24 03:04:56;;;;;;;4.63;2.90;;;18.80;71.20;;;;;;5019714;28;20037;-74
2021/09/24 03:07:22;;;;;;;12.45;3.10;;;18.80;71.20;;;;;;5017981;28;20065;-77
2021/09/24 03:09:48;;;;;;;4.30;2.80;;;18.80;71.20;;;;;;5016353;28;20128;-72
2021/09/24 03:12:13;;;;;;;6.97;2.85;;;18.80;71.40;;;;;;5016533;28;20037;-72
2021/09/24 03:14:39;;;;;;;4.13;3.17;;;18.80;71.30;;;;;;5016346;28;20117;-72
2021/09/24 03:17:05;;;;;;;5.03;3.03;;;18.80;71.00;;;;;;5016381;28;20037;-73
2021/09/24 03:19:31;;;;;;;9.23;3.53;;;18.70;70.60;;;;;;5016449;28;20117;-77
2021/09/24 03:21:56;;;;;;;5.97;3.22;;;18.80;70.80;;;;;;5016297;28;20030;-73
2021/09/24 03:24:22;;;;;;;6.90;3.10;;;18.70;71.20;;;;;;5016154;28;20037;-77
2021/09/24 03:26:48;;;;;;;9.93;3.47;;;18.80;71.50;;;;;;5016182;28;20092;-72
2021/09/24 03:29:14;;;;;;;5.50;3.00;;;18.70;71.20;;;;;;5016092;28;20052;-72
2021/09/24 03:31:41;;;;;;;6.78;3.10;;;18.80;71.00;;;;;;5016161;28;20038;-72
2021/09/24 03:34:09;;;;;;;7.05;3.22;;;18.80;70.50;;;;;;5015946;28;20038;-73
2021/09/24 03:36:35;;;;;;;4.70;2.97;;;18.80;70.80;;;;;;5015864;28;20084;-73
2021/09/24 03:39:04;;;;;;;6.55;3.13;;;18.70;70.90;;;;;;5015956;28;20065;-72
2021/09/24 03:41:30;;;;;;;7.53;3.20;;;18.70;71.20;;;;;;5015920;28;20026;-73
2021/09/24 03:43:55;;;;;;;5.68;3.40;;;18.70;71.20;;;;;;5015901;28;20034;-77
2021/09/24 03:46:21;;;;;;;6.13;2.90;;;18.70;71.20;;;;;;5015748;28;20066;-72
2021/09/24 03:48:47;;;;;;;5.85;2.75;;;18.60;71.40;;;;;;5015689;28;20453;-72
2021/09/24 03:51:13;;;;;;;4.65;3.20;;;18.60;71.50;;;;;;5015505;28;20030;-74
2021/09/24 03:53:38;;;;;;;7.97;3.20;;;18.60;71.50;;;;;;5015766;28;20041;-73
2021/09/24 03:56:04;;;;;;;8.63;3.10;;;18.60;71.80;;;;;;5015526;28;20057;-75
2021/09/24 03:58:30;;;;;;;9.57;3.08;;;18.60;71.60;;;;;;5015487;28;20037;-73
2021/09/24 04:00:56;;;;;;;5.85;2.60;;;18.60;71.30;;;;;;5015612;28;20038;-73
2021/09/24 04:03:21;;;;;;;5.47;2.72;;;18.60;71.30;;;;;;5015471;28;20041;-77
2021/09/24 04:05:47;;;;;;;4.72;2.75;;;18.60;71.40;;;;;;5014886;28;20157;-73
2021/09/24 04:08:14;;;;;;;9.55;3.05;;;18.60;71.40;;;;;;5015317;28;20509;-73
2021/09/24 04:10:41;;;;;;;8.18;2.85;;;18.50;71.60;;;;;;5015123;28;20049;-73
2021/09/24 04:13:07;;;;;;;4.13;2.88;;;18.50;71.50;;;;;;5015122;28;20487;-73
2021/09/24 04:15:32;;;;;;;5.40;3.10;;;18.60;71.50;;;;;;5014918;28;20046;-73
2021/09/24 04:17:58;;;;;;;6.10;2.80;;;18.50;71.20;;;;;;5015428;28;20084;-75
2021/09/24 04:20:24;;;;;;;6.90;2.80;;;18.50;71.20;;;;;;5015116;28;20422;-73
2021/09/24 04:22:49;;;;;;;5.65;3.10;;;18.60;71.20;;;;;;5015201;28;20041;-74
2021/09/24 04:25:15;;;;;;;7.88;2.85;;;18.50;70.90;;;;;;5014728;28;20034;-72
2021/09/24 04:27:41;;;;;;;7.70;3.00;;;18.60;70.90;;;;;;5015026;28;20084;-73
2021/09/24 04:30:08;;;;;;;7.72;3.30;;;18.60;70.90;;;;;;5015099;28;20505;-73
2021/09/24 04:32:34;;;;;;;7.82;3.03;;;18.60;71.00;;;;;;5014601;28;20372;-73
2021/09/24 04:35:00;;;;;;;7.55;3.05;;;18.60;71.40;;;;;;5014893;28;20037;-73
2021/09/24 04:37:26;;;;;;;14.25;3.25;;;18.50;71.70;;;;;;5014769;28;20457;-77
2021/09/24 04:39:52;;;;;;;6.00;3.58;;;18.50;72.00;;;;;;5014747;28;20030;-74
2021/09/24 04:42:18;;;;;;;10.15;3.25;;;18.50;71.90;;;;;;5014753;28;20470;-73
2021/09/24 04:44:43;;;;;;;4.47;3.03;;;18.60;72.20;;;;;;5014819;28;20029;-77
2021/09/24 04:47:09;;;;;;;9.52;3.45;;;18.50;72.30;;;;;;5014514;28;20475;-73
2021/09/24 04:49:35;;;;;;;5.88;2.90;;;18.50;72.30;;;;;;5014507;28;20049;-73
2021/09/24 04:52:01;;;;;;;6.88;3.22;;;18.50;72.40;;;;;;5014574;28;20026;-73
2021/09/24 04:54:26;;;;;;;6.20;2.85;;;18.50;72.50;;;;;;5014417;28;20034;-74
2021/09/24 04:56:52;;;;;;;5.38;3.00;;;18.50;72.80;;;;;;5014706;28;20030;-73
2021/09/24 04:59:18;;;;;;;5.40;2.92;;;18.50;72.70;;;;;;5014512;28;20038;-73
2021/09/24 05:01:43;;;;;;;7.20;3.17;;;18.50;72.90;;;;;;5014631;28;20030;-72
2021/09/24 05:04:09;;;;;;;4.82;2.85;;;18.50;72.80;;;;;;5014464;28;20037;-73
2021/09/24 05:06:35;;;;;;;4.82;2.80;;;18.50;72.80;;;;;;5014201;28;20116;-74
2021/09/24 05:09:00;;;;;;;11.23;3.22;;;18.50;72.40;;;;;;5014132;28;20120;-73
2021/09/24 05:11:26;;;;;;;7.10;2.72;;;18.50;72.00;;;;;;5014143;28;20136;-73
2021/09/24 05:13:52;;;;;;;6.63;2.78;;;18.50;71.60;;;;;;5014011;28;20394;-73
2021/09/24 05:16:18;;;;;;;7.07;3.05;;;18.60;71.60;;;;;;5014115;28;20033;-73
2021/09/24 05:18:44;;;;;;;6.22;3.20;;;18.50;71.40;;;;;;5013510;28;20038;-77
2021/09/24 05:21:10;;;;;;;9.52;2.97;;;18.50;71.40;;;;;;5014078;28;20040;-77
2021/09/24 05:23:36;;;;;;;10.88;2.88;;;18.50;71.70;;;;;;5014056;28;20088;-73
2021/09/24 05:26:03;;;;;;;3.75;2.63;;;18.50;71.40;;;;;;5014330;28;20045;-71
2021/09/24 05:28:28;;;;;;;7.75;3.15;;;18.50;71.50;;;;;;5016046;28;20069;-73
2021/09/24 05:30:54;;;;;;;5.90;2.90;;;18.60;71.70;;;;;;5014288;28;20419;-73
2021/09/24 05:33:20;;;;;;;5.47;3.10;;;18.50;71.70;;;;;;5013850;28;20088;-73
2021/09/24 05:35:46;;;;;;;9.07;3.65;;;18.50;71.60;;;;;;5013777;28;20030;-73
2021/09/24 05:38:11;;;;;;;6.40;2.90;;;18.50;71.70;;;;;;5014016;28;20034;-75
2021/09/24 05:40:37;;;;;;;7.53;2.97;;;18.50;71.60;;;;;;5014023;28;20057;-74
2021/09/24 05:43:03;;;;;;;4.57;2.55;;;18.50;71.40;;;;;;5013494;28;20509;-74
2021/09/24 05:45:29;;;;;;;5.50;2.80;;;18.50;71.80;;;;;;5013397;28;20034;-74
2021/09/24 05:47:55;;;;;;;6.55;2.67;;;18.50;72.20;;;;;;5013699;28;20042;-75
2021/09/24 05:50:21;;;;;;;5.32;3.20;;;18.50;72.20;;;;;;5013608;28;20026;-75
2021/09/24 05:52:49;;;;;;;9.90;3.13;;;18.50;72.30;;;;;;5013283;28;20049;-75
2021/09/24 05:55:18;;;;;;;7.00;3.05;;;18.50;72.30;;;;;;5013452;28;20084;-74
2021/09/24 05:57:44;;;;;;;7.43;3.15;;;18.50;72.50;;;;;;5013233;28;20029;-74
2021/09/24 06:00:12;;;;;;;5.60;3.40;;;18.50;72.50;;;;;;5013392;28;20434;-74
2021/09/24 06:02:38;;;;;;;12.38;3.88;;;18.50;73.30;;;;;;5013429;28;20037;-75
2021/09/24 06:05:05;;;;;;;9.25;3.80;;;18.50;72.90;;;;;;5013355;28;20113;-74
2021/09/24 06:07:30;;;;;;;6.53;3.58;;;18.50;73.20;;;;;;5012962;28;20077;-74
2021/09/24 06:09:56;;;;;;;6.03;3.38;;;18.50;73.10;;;;;;5012537;28;20050;-75
2021/09/24 06:12:22;;;;;;;6.75;3.75;;;18.50;73.20;;;;;;5013068;28;20069;-75
2021/09/24 06:14:48;;;;;;;8.35;3.90;;;18.60;73.10;;;;;;5013272;28;20062;-74
2021/09/24 06:17:14;;;;;;;7.07;3.25;;;18.60;72.90;;;;;;5012931;28;20034;-75
2021/09/24 06:19:39;;;;;;;7.93;3.10;;;18.60;73.20;;;;;;5013013;28;20037;-75
2021/09/24 06:22:06;;;;;;;13.52;3.42;;;18.60;73.50;;;;;;5012887;28;20445;-74
2021/09/24 06:24:32;;;;;;;9.32;3.55;;;18.60;73.40;;;;;;5012789;28;20041;-75
2021/09/24 06:26:59;;;;;;;6.57;3.80;;;18.60;73.40;;;;;;5012863;28;20506;-75
2021/09/24 06:29:25;;;;;;;11.23;3.67;;;18.60;73.60;;;;;;5014545;28;20046;-73
2021/09/24 06:31:51;;;;;;;11.55;3.70;;;18.70;73.90;;;;;;5017035;28;20042;-74
2021/09/24 06:34:16;;;;;;;11.25;3.90;;;18.70;73.70;;;;;;5016765;28;20034;-72
2021/09/24 06:36:42;;;;;;;12.90;3.85;;;18.70;73.40;;;;;;5016797;28;20080;-73
2021/09/24 06:39:08;;;;;;;10.30;3.45;;;18.70;73.40;;;;;;5016439;28;20058;-72
2021/09/24 06:41:33;;;;;;;8.88;3.55;;;18.70;73.20;;;;;;5017473;28;20109;-73
2021/09/24 06:43:59;;;;;;;14.20;3.88;;;18.70;73.40;;;;;;5016985;28;20037;-72
2021/09/24 06:46:25;;;;;;;12.57;3.70;;;18.70;73.50;;;;;;5016843;28;20364;-72
2021/09/24 06:48:51;;;;;;;15.13;3.53;;;18.70;73.10;;;;;;5016746;28;20054;-72
2021/09/24 06:51:17;;;;;;;14.32;3.75;;;18.80;72.80;;;;;;5016886;28;20038;-72
2021/09/24 06:53:42;;;;;;;13.75;3.60;;;18.80;72.70;;;;;;5016729;28;20041;-72
2021/09/24 06:56:08;;;;;;;12.02;3.85;;;18.80;72.30;;;;;;5016833;28;20414;-72
2021/09/24 06:58:35;;;;;;;9.60;3.50;;;18.80;72.30;;;;;;5016754;28;20030;-72
2021/09/24 07:01:01;;;;;;;10.43;3.60;;;18.80;72.90;;;;;;5016676;28;20423;-72
2021/09/24 07:03:27;;;;;;;8.50;3.80;;;18.80;72.90;;;;;;5016599;28;20065;-71
2021/09/24 07:05:52;;;;;;;8.65;3.58;;;18.80;73.00;;;;;;5016553;28;20034;-72
2021/09/24 07:08:18;;;;;;;9.80;3.90;;;18.80;73.00;;;;;;4998864;28;20042;-72
2021/09/24 07:10:44;;;;;;;10.82;3.65;;;18.80;72.60;;;;;;5016008;28;20061;-72
2021/09/24 07:13:10;;;;;;;8.35;3.50;;;18.80;72.40;;;;;;5016388;28;20034;-71
2021/09/24 07:15:37;;;;;;;8.88;3.53;;;18.80;72.20;;;;;;5016353;28;20037;-72
2021/09/24 07:18:02;;;;;;;7.40;3.22;;;18.80;72.00;;;;;;5016347;28;20088;-72
2021/09/24 07:20:28;;;;;;;8.48;3.50;;;18.90;71.90;;;;;;5015964;28;20029;-72
2021/09/24 07:22:54;;;;;;;6.25;3.38;;;18.80;71.80;;;;;;5016427;28;20034;-71
2021/09/24 07:25:20;;;;;;;6.38;3.38;;;18.90;71.90;;;;;;5016108;28;20432;-73
2021/09/24 07:27:46;;;;;;;7.80;3.35;;;18.90;71.90;;;;;;5015835;28;20056;-71
2021/09/24 07:30:15;;;;;;;10.95;3.25;;;18.90;72.10;;;;;;5016152;28;20146;-71
2021/09/24 07:32:41;;;;;;;6.90;3.22;;;18.90;72.00;;;;;;5015949;28;20414;-72
2021/09/24 07:35:07;;;;;;;11.38;2.95;;;18.90;72.10;;;;;;5016074;28;20041;-72
2021/09/24 07:37:33;;;;;;;7.47;2.85;;;19.00;72.00;;;;;;4998450;28;20552;-72
2021/09/24 07:39:59;;;;;;;8.45;3.15;;;18.90;71.90;;;;;;5015563;28;20108;-72
2021/09/24 07:42:24;;;;;;;8.82;3.30;;;19.00;71.80;;;;;;5014818;28;20384;-72
2021/09/24 07:44:50;;;;;;;10.38;3.35;;;19.00;71.70;;;;;;5015910;28;20034;-72
2021/09/24 07:47:16;;;;;;;11.73;3.40;;;19.10;71.70;;;;;;5015878;28;20037;-72
2021/09/24 07:49:43;;;;;;;9.82;3.65;;;19.10;71.40;;;;;;5015565;28;20042;-73
2021/09/24 07:52:08;;;;;;;8.13;3.17;;;19.10;71.20;;;;;;5015787;28;20042;-73
2021/09/24 07:54:34;;;;;;;6.68;3.42;;;19.10;71.20;;;;;;5015560;28;20038;-72
2021/09/24 07:57:00;;;;;;;7.70;3.55;;;19.10;71.40;;;;;;5015505;28;20032;-73
2021/09/24 07:59:25;;;;;;;9.82;3.63;;;19.20;71.20;;;;;;5015561;28;20092;-73
2021/09/24 08:01:52;;;;;;;8.40;3.80;;;19.30;71.10;;;;;;5015393;28;20532;-72
2021/09/24 08:04:17;;;;;;;7.85;3.63;;;19.20;70.80;;;;;;5015357;28;20038;-72
2021/09/24 08:06:43;;;;;;;8.20;4.07;;;19.30;70.90;;;;;;5015132;28;20084;-72
2021/09/24 08:09:09;;;;;;;8.52;3.75;;;19.30;71.00;;;;;;5015250;28;20125;-72
2021/09/24 08:11:34;;;;;;;7.50;4.07;;;19.30;70.80;;;;;;5014952;28;20075;-72
2021/09/24 08:14:00;;;;;;;7.07;3.33;;;19.40;70.70;;;;;;5015500;28;20042;-72
2021/09/24 08:16:26;;;;;;;10.48;3.45;;;19.40;70.60;;;;;;5014955;28;20034;-72
2021/09/24 08:18:51;;;;;;;8.95;3.42;;;19.50;70.40;;;;;;5015358;28;20022;-72
2021/09/24 08:21:19;;;;;;;6.40;3.42;;;19.50;70.90;;;;;;5015042;28;20394;-73
2021/09/24 08:23:45;;;;;;;7.55;3.20;;;19.50;70.30;;;;;;5015235;28;20364;-72
2021/09/24 08:26:11;;;;;;;8.90;3.33;;;19.50;70.20;;;;;;5015035;28;20066;-73
2021/09/24 08:28:36;;;;;;;7.70;3.28;;;19.60;70.00;;;;;;5014775;28;20136;-73
2021/09/24 08:31:03;;;;;;;7.57;3.00;;;19.60;70.30;;;;;;5014943;28;20038;-72
2021/09/24 08:33:28;;;;;;;6.35;2.83;;;19.60;69.80;;;;;;5014882;28;20060;-72
2021/09/24 08:35:54;;;;;;;6.75;3.15;;;19.70;69.70;;;;;;5014918;28;20455;-74
2021/09/24 08:38:21;;;;;;;10.80;3.03;;;19.80;69.60;;;;;;5014757;28;20037;-73
2021/09/24 08:40:47;;;;;;;6.65;2.78;;;19.90;70.80;;;;;;5014730;28;20034;-74
2021/09/24 08:43:13;;;;;;;4.65;2.90;;;19.80;69.00;;;;;;5014327;28;20482;-72
2021/09/24 08:45:41;;;;;;;5.68;2.97;;;19.90;68.50;;;;;;5014606;28;20459;-72
2021/09/24 08:48:10;;;;;;;6.80;2.70;;;20.00;69.40;;;;;;5014553;28;20046;-72
2021/09/24 08:50:38;;;;;;;8.25;2.83;;;19.90;67.50;;;;;;5014926;28;20026;-72
2021/09/24 08:53:06;;;;;;;5.10;2.70;;;19.90;67.20;;;;;;5014191;28;20100;-73
2021/09/24 08:55:32;;;;;;;5.57;2.60;;;20.00;67.00;;;;;;5014329;28;20045;-73
2021/09/24 08:57:58;;;;;;;4.82;2.58;;;20.00;66.70;;;;;;5014528;28;20387;-73
2021/09/24 09:00:25;;;;;;;8.13;2.78;;;20.00;66.80;;;;;;5014387;28;20040;-72
2021/09/24 09:02:57;;;;;;;7.85;3.05;;;20.00;66.70;;;;;;5014045;28;20432;-72
2021/09/24 09:05:25;;;;;;;6.13;2.90;;;20.10;66.50;;;;;;5014436;28;20405;-72
2021/09/24 09:08:06;;;;;;;8.15;2.92;;;20.00;66.30;;;;;;5013967;28;20038;-72
2021/09/24 09:10:39;;;;;;;6.65;2.67;;;20.10;66.70;;;;;;5014124;28;20449;-72
2021/09/24 09:13:10;;;;;;;9.32;2.90;;;20.10;66.40;;;;;;5013998;28;20042;-72
2021/09/24 09:15:36;;;;;;;9.07;3.25;;;20.10;65.70;;;;;;5013943;28;20042;-73
2021/09/24 09:18:02;;;;;;;5.28;2.90;;;20.10;65.00;;;;;;5014251;28;20041;-72
2021/09/24 09:20:33;;;;;;;4.18;2.65;;;20.10;65.10;;;;;;5014357;28;20030;-73
2021/09/24 09:22:58;;;;;;;11.07;3.20;;;20.10;65.50;;;;;;5014323;28;20112;-73
2021/09/24 09:25:32;;;;;;;7.35;3.17;;;20.10;65.60;;;;;;5013778;28;20568;-74
2021/09/24 09:28:01;;;;;;;8.23;3.13;;;20.20;65.60;;;;;;5013970;28;20038;-72
2021/09/24 09:30:28;;;;;;;6.25;2.88;;;20.20;65.70;;;;;;5013747;28;20548;-72
2021/09/24 09:33:08;;;;;;;6.57;3.20;;;20.20;65.60;;;;;;5014161;28;20037;-72
2021/09/24 09:36:00;;;;;;;5.85;2.92;;;20.20;65.50;;;;;;5013764;28;20137;-72
2021/09/24 09:38:37;;;;;;;6.97;2.88;;;20.20;65.40;;;;;;5010074;28;20505;-72
2021/09/24 09:41:08;;;;;;;5.13;2.90;;;20.20;65.60;;;;;;5013743;28;20394;-72
2021/09/24 09:43:39;;;;;;;7.28;3.25;;;20.20;65.80;;;;;;5013872;28;20038;-72
2021/09/24 09:46:09;;;;;;;6.68;3.03;;;20.30;66.20;;;;;;5013752;28;20498;-73
2021/09/24 09:48:35;;;;;;;6.80;2.80;;;20.30;65.90;;;;;;5013473;28;20049;-73
2021/09/24 09:51:01;;;;;;;10.65;3.22;;;20.30;65.90;;;;;;5013398;28;20086;-73
2021/09/24 09:53:27;;;;;;;6.53;2.92;;;20.30;65.80;;;;;;5013886;28;20041;-72
2021/09/24 09:55:59;;;;;;;6.13;2.72;;;20.30;65.20;;;;;;5013638;28;20120;-73
2021/09/24 09:58:28;;;;;;;8.48;3.80;;;20.30;64.90;;;;;;5013844;28;20052;-73
2021/09/24 10:00:59;;;;;;;4.72;2.83;;;20.30;64.80;;;;;;5013427;28;20042;-72
2021/09/24 10:03:48;;;;;;;5.18;3.35;;;20.30;64.80;;;;;;5013269;28;20037;-72
2021/09/24 10:06:23;;;;;;;6.35;2.83;;;20.40;64.60;;;;;;5001862;28;20497;-72
2021/09/24 10:08:54;;;;;;;4.18;2.63;;;20.40;64.60;;;;;;5013094;28;20046;-72
2021/09/24 10:11:20;;;;;;;9.98;3.00;;;20.40;64.90;;;;;;5013406;28;20042;-72
2021/09/24 10:14:09;;;;;;;8.77;2.80;;;20.40;64.90;;;;;;5013821;28;20390;-72
2021/09/24 10:16:41;;;;;;;7.90;3.13;;;20.40;64.40;;;;;;5013891;28;20038;-72
2021/09/24 10:19:07;;;;;;;7.13;3.03;;;20.40;63.90;;;;;;5013565;28;20117;-73
2021/09/24 10:21:33;;;;;;;7.55;3.00;;;20.40;64.00;;;;;;5013029;28;20030;-73
2021/09/24 10:23:59;;;;;;;6.68;3.08;;;20.40;64.30;;;;;;5013467;28;20088;-70
2021/09/24 10:26:30;;;;;;;7.45;3.08;;;20.40;64.80;;;;;;5013211;28;20026;-73
2021/09/24 10:28:59;;;;;;;6.32;3.10;;;20.50;64.50;;;;;;5013421;28;20061;-72
2021/09/24 10:31:27;;;;;;;6.65;3.28;;;20.50;64.50;;;;;;5012958;28;20460;-74
2021/09/24 10:34:00;;;;;;;9.35;3.75;;;20.50;64.20;;;;;;5013246;28;20042;-72
2021/09/24 10:36:51;;;;;;;9.05;4.30;;;20.60;64.10;;;;;;5013353;28;20113;-72
2021/09/24 10:39:31;;;;;;;9.90;2.65;;;20.60;63.60;;;;;;5013067;28;20038;-72
2021/09/24 10:42:21;;;;;;;6.70;3.40;;;20.60;63.30;;;;;;5013125;28;20099;-72
2021/09/24 10:45:05;;;;;;;4.78;3.10;;;20.60;63.60;;;;;;5013263;28;20076;-72
2021/09/24 10:47:59;;;;;;;5.32;3.05;;;20.60;64.40;;;;;;5013284;28;20135;-72
2021/09/24 10:50:31;;;;;;;6.90;3.08;;;20.70;64.40;;;;;;5013184;28;20038;-72
2021/09/24 10:53:19;;;;;;;10.85;3.10;;;20.70;64.10;;;;;;5012741;28;20034;-72
2021/09/24 10:55:53;;;;;;;7.60;3.60;;;20.70;64.00;;;;;;5013079;28;20034;-72
2021/09/24 10:58:31;;;;;;;4.18;3.03;;;20.70;64.10;;;;;;5012276;28;20034;-73
2021/09/24 11:01:05;;;;;;;8.05;3.85;;;20.70;63.70;;;;;;5013162;28;20040;-72
2021/09/24 11:03:49;;;;;;;5.55;3.15;;;20.70;63.90;;;;;;5013087;28;20185;-72
2021/09/24 11:06:15;;;;;;;5.07;3.33;;;20.80;63.70;;;;;;5012635;28;20038;-72
2021/09/24 11:08:43;;;;;;;6.95;3.10;;;20.70;63.70;;;;;;5013145;28;20041;-72
2021/09/24 11:11:23;;;;;;;11.38;3.47;;;20.80;63.40;;;;;;5011477;28;20097;-72
2021/09/24 11:13:51;;;;;;;6.90;3.80;;;20.80;63.70;;;;;;5011845;28;20118;-73
2021/09/24 11:16:18;;;;;;;9.73;3.65;;;20.80;63.80;;;;;;5012772;28;20041;-73
2021/09/24 11:19:01;;;;;;;6.82;3.80;;;20.80;63.50;;;;;;5014986;28;20491;-73
2021/09/24 11:21:38;;;;;;;11.45;3.53;;;21.00;65.30;;;;;;5014698;28;20038;-73
2021/09/24 11:24:31;;;;;;;7.28;3.67;;;20.90;63.80;;;;;;5014244;28;20478;-73
2021/09/24 11:27:01;;;;;;;6.95;4.80;;;21.00;63.40;;;;;;5015272;28;20034;-73
2021/09/24 11:29:28;;;;;;;7.45;4.38;;;21.00;62.50;;;;;;5015757;28;20129;-72
2021/09/24 11:31:53;;;;;;;6.50;4.32;;;21.00;62.00;;;;;;5015575;28;20026;-72
2021/09/24 11:37:18;;;;;;;7.72;4.45;;;21.00;62.30;;;;;;5015786;28;20038;-72
2021/09/24 11:39:46;;;;;;;10.32;3.97;;;21.00;62.60;;;;;;5015596;28;20065;-72
2021/09/24 11:42:15;;;;;;;7.70;4.80;;;21.00;63.30;;;;;;5016099;28;20036;-73
2021/09/24 11:44:49;;;;;;;4.45;3.60;;;21.00;62.60;;;;;;5015653;28;20034;-73
2021/09/24 11:47:27;;;;;;;7.25;4.50;;;21.00;62.60;;;;;;5015726;28;20030;-73
2021/09/24 11:49:53;;;;;;;7.13;3.90;;;21.10;62.10;;;;;;5015666;28;20042;-73
2021/09/24 11:52:20;;;;;;;6.55;4.25;;;21.10;62.30;;;;;;5015455;28;20034;-72
2021/09/24 11:54:46;;;;;;;8.10;4.40;;;21.20;62.30;;;;;;5015252;28;20402;-72
2021/09/24 11:57:17;;;;;;;6.43;5.20;;;21.20;61.70;;;;;;5015642;28;20033;-72
2021/09/24 11:59:43;;;;;;;8.10;4.57;;;21.20;60.70;;;;;;5015530;28;20038;-74
2021/09/24 12:02:22;;;;;;;11.55;4.97;;;21.20;61.20;;;;;;5014905;28;20030;-72
2021/09/24 12:05:03;;;;;;;8.85;4.78;;;21.20;61.40;;;;;;5015254;28;20034;-72
2021/09/24 12:07:30;;;;;;;9.82;4.95;;;21.20;61.70;;;;;;5015142;28;20073;-73
2021/09/24 12:10:03;;;;;;;6.63;4.57;;;;;;;;;;5015138;28;20380;-73
2021/09/24 12:12:29;;;;;;;8.35;4.97;;;21.30;61.60;;;;;;5014974;28;20030;-73
2021/09/24 12:14:58;;;;;;;8.38;5.15;;;21.30;61.50;;;;;;5014993;28;20100;-73
2021/09/24 12:17:26;;;;;;;7.03;5.13;;;21.40;61.60;;;;;;5015161;28;20097;-73
2021/09/24 12:19:52;;;;;;;10.48;5.50;;;21.40;61.60;;;;;;5015277;28;20092;-71
2021/09/24 12:22:18;;;;;;;12.68;5.68;;;21.40;61.60;;;;;;5015021;28;20042;-72
2021/09/24 12:24:47;;;;;;;10.63;5.85;;;21.40;61.00;;;;;;5015142;28;20038;-71
2021/09/24 12:27:24;;;;;;;12.05;5.22;;;21.50;60.70;;;;;;5014229;28;20037;-71
2021/09/24 12:29:51;;;;;;;8.07;5.45;;;21.50;61.00;;;;;;5014863;28;20074;-75
2021/09/24 12:32:23;;;;;;;6.45;4.95;;;21.60;60.10;;;;;;5014788;28;20045;-71
2021/09/24 12:34:59;;;;;;;6.40;5.07;;;21.60;59.90;;;;;;5014952;28;20045;-71
2021/09/24 12:37:43;;;;;;;6.57;5.07;;;21.70;60.20;;;;;;5014678;28;20056;-72
2021/09/24 12:40:11;;;;;;;8.38;4.72;;;21.70;58.30;;;;;;5014975;28;20077;-74
2021/09/24 12:42:40;;;;;;;10.40;5.20;;;21.70;59.30;;;;;;5014536;28;20034;-72
2021/09/24 12:45:19;;;;;;;5.63;4.78;;;21.70;59.90;;;;;;5014488;28;20491;-75
2021/09/24 12:47:45;;;;;;;10.48;4.30;;;21.70;59.70;;;;;;5014331;28;20046;-73
2021/09/24 12:50:11;;;;;;;7.70;4.68;;;21.70;60.20;;;;;;5014124;28;20034;-73
2021/09/24 12:52:38;;;;;;;5.75;3.83;;;21.70;59.50;;;;;;5014531;28;20049;-73